»·PEaware :: COBRA11 KEND-KEND

COBRA11 :: KEND-KEND

FLIGHT INFORMATION

Flight Status: Arrived
Operator: Unknown
More flights by this operator :: More flights under this callsign
Pilot: Martin G. (22231)
Aircraft: BEECH AIRCRAFT T-6A TEXAN
(TEX2)
More flights by this aircraft type
Origin: KEND Vance AFB
United States
Destination: KEND Vance AFB
United States
More flights between these airports :: More routes between these airports
Route: +PNC F22
File this flight plan on PilotEdge
Remarks:
Altitude:
(Current/Filed)
0ft
Speed:
(Current/Filed)
0kts
Departed: 26-Mar-20 07:39 AM
Arrived: 26-Mar-20 08:28 AM
Distance/Time
Traveled:
0nm/0:49
Distance/Time
To Go:
Arrived

Flight Plot

Page will automatically refresh every two minutes.

Flight plan parsing failed; only flown route is shown


Map Options




Map Legend


Flown Route
Filed Route
Departure Airport
Arrival Airport
Navaid (VOR, NDB)
Fix

Horizontal Profiles

Position Reports

Time Latitude Longitude Heading Altitude Ground
Speed
26-Mar-20 07:38 36.346717 -97.911032 181 1279ft 0kts
26-Mar-20 07:38 36.337509 -97.910893 181 1470ft 120kts
26-Mar-20 07:39 36.285374 -97.911557 181 2167ft 230kts
26-Mar-20 07:40 36.234303 -97.890513 74 3913ft 240kts
26-Mar-20 07:41 36.262381 -97.814121 66 5395ft 242kts
26-Mar-20 07:43 36.295501 -97.720340 63 4882ft 257kts
26-Mar-20 07:43 36.320879 -97.654585 64 5050ft 252kts
26-Mar-20 07:44 36.347424 -97.573059 87 4833ft 260kts
26-Mar-20 07:45 36.350602 -97.488421 83 5731ft 238kts
26-Mar-20 07:46 36.369893 -97.407886 39 5512ft 250kts
26-Mar-20 07:47 36.426665 -97.357548 31 5487ft 255kts
26-Mar-20 07:48 36.487552 -97.307549 33 5546ft 263kts
26-Mar-20 07:49 36.546915 -97.252707 37 5526ft 267kts
26-Mar-20 07:50 36.603735 -97.192728 39 5521ft 267kts
26-Mar-20 07:51 36.673372 -97.153548 13 4208ft 286kts
26-Mar-20 07:52 36.744709 -97.138047 354 2689ft 232kts
26-Mar-20 07:53 36.783272 -97.120328 94 2239ft 148kts
26-Mar-20 07:54 36.761530 -97.099800 180 1731ft 123kts
26-Mar-20 07:55 36.731549 -97.099490 181 1092ft 121kts
26-Mar-20 07:56 36.687314 -97.121274 203 2517ft 203kts
26-Mar-20 07:57 36.640583 -97.164394 216 2481ft 214kts
26-Mar-20 07:58 36.592302 -97.212411 221 2504ft 226kts
26-Mar-20 07:59 36.541219 -97.260079 215 2536ft 234kts
26-Mar-20 08:00 36.486521 -97.302658 206 2752ft 230kts
26-Mar-20 08:01 36.425663 -97.336422 205 2617ft 237kts
26-Mar-20 08:02 36.368967 -97.324363 104 2516ft 248kts
26-Mar-20 08:03 36.423482 -97.299820 359 2547ft 251kts
26-Mar-20 08:04 36.410845 -97.276725 181 2165ft 147kts
26-Mar-20 08:05 36.397627 -97.262845 358 2397ft 154kts
26-Mar-20 08:06 36.387789 -97.277311 176 991ft 103kts
26-Mar-20 08:07 36.364719 -97.252314 21 2503ft 212kts
26-Mar-20 08:08 36.425254 -97.246550 14 2478ft 171kts
26-Mar-20 08:09 36.427444 -97.274294 187 2279ft 119kts
26-Mar-20 08:10 36.395490 -97.277211 181 1078ft 107kts
26-Mar-20 08:11 36.360860 -97.274645 179 1976ft 175kts
26-Mar-20 08:12 36.399607 -97.288704 356 3375ft 247kts
26-Mar-20 08:13 36.437075 -97.332966 271 4484ft 252kts
26-Mar-20 08:14 36.434048 -97.413090 266 4469ft 222kts
26-Mar-20 08:15 36.428804 -97.488051 262 4501ft 217kts
26-Mar-20 08:16 36.421011 -97.561415 256 4563ft 214kts
26-Mar-20 08:17 36.404800 -97.636473 259 4509ft 229kts
26-Mar-20 08:18 36.384699 -97.712297 248 4630ft 230kts
26-Mar-20 08:19 36.373977 -97.778631 346 5969ft 216kts
26-Mar-20 08:20 36.436852 -97.780279 355 5052ft 232kts
26-Mar-20 08:21 36.489906 -97.812744 305 3104ft 234kts
26-Mar-20 08:22 36.487019 -97.875545 227 2275ft 182kts
26-Mar-20 08:23 36.444143 -97.907064 182 2344ft 198kts
26-Mar-20 08:24 36.387435 -97.907782 184 2390ft 204kts
26-Mar-20 08:25 36.337982 -97.901376 45 2313ft 189kts
26-Mar-20 08:26 36.353274 -97.910481 191 1514ft 105kts
26-Mar-20 08:27 36.341084 -97.910285 97 1284ft 0kts
26-Mar-20 08:28 36.341084 -97.910285 97 1284ft 0kts
26-Mar-20 08:29 36.341084 -97.910285 97 1284ft 0kts
26-Mar-20 08:30 36.341084 -97.910285 97 1284ft 0kts
26-Mar-20 08:31 36.341084 -97.910285 97 1284ft 0kts
26-Mar-20 08:32 36.341084 -97.910285 97 1284ft 0kts

Navigation Log

Ident Type
Flight plan parsing failed, navigation log unavailable